Verdon, South Dakota
Current Conditions -  °F | °C
As of 5:53 AM on Wednesday 28 Jan 2015 (Local Time) from KABR Reporting Station
Clear Clear  
Wind Chill: 29°   Ceiling: Unl
Heat Index: 29°   Visibility: 10mi
Dew Point: 27°   Wind: 3mph
Humidity: 92%   Direction: 80°E
Pressure: 29.75"   Gusts: NA
Location:  45.1644°N, 98.0134°W
Report Text: KABR 281153Z AUTO 08003KT 10SM CLR M02/M03 A2975 RMK AO2 SLP088 T10171028 10006 21017 56014
Loading
Personal Weather Stations






























Interactive Weather Map New forecast layout! Learn more

10-Day Weather Forecast

Advertisements
Track Severe Weather on mobile